createdAt,value
2022-08-10T00:00:31.577Z,21.60
2022-08-10T00:03:01.177Z,21.55
2022-08-10T00:05:28.517Z,21.43
2022-08-10T00:08:10.492Z,21.48
2022-08-10T00:10:37.335Z,21.51
2022-08-10T00:13:03.897Z,21.45
2022-08-10T00:15:52.335Z,21.57
2022-08-10T00:18:34.282Z,21.50
2022-08-10T00:21:02.355Z,21.47
2022-08-10T00:23:29.045Z,21.54
2022-08-10T00:25:55.894Z,21.40
2022-08-10T00:28:22.458Z,21.35
2022-08-10T00:30:49.038Z,21.42
2022-08-10T00:33:15.685Z,21.44
2022-08-10T00:35:42.510Z,21.36
2022-08-10T00:38:09.095Z,21.37
2022-08-10T00:40:37.996Z,21.28
2022-08-10T00:43:06.008Z,21.31
2022-08-10T00:45:32.868Z,21.15
2022-08-10T00:47:59.446Z,21.18
2022-08-10T00:50:26.174Z,21.14
2022-08-10T00:52:53.225Z,21.05
2022-08-10T00:55:20.889Z,20.97
2022-08-10T00:57:54.832Z,20.96
2022-08-10T01:00:23.005Z,20.94
2022-08-10T01:02:49.869Z,20.70
2022-08-10T01:05:16.679Z,20.70
2022-08-10T01:08:15.305Z,20.67
2022-08-10T01:12:38.621Z,20.74
2022-08-10T01:14:09.560Z,20.69
2022-08-10T01:16:51.136Z,20.63
2022-08-10T01:19:35.118Z,20.65
2022-08-10T01:22:20.757Z,20.58
2022-08-10T01:25:31.352Z,20.56
2022-08-10T01:28:24.285Z,20.53
2022-08-10T01:30:54.632Z,20.47
2022-08-10T01:33:57.896Z,20.40
2022-08-10T01:36:31.946Z,20.26
2022-08-10T01:39:03.500Z,20.10
2022-08-10T01:41:46.149Z,20.21
2022-08-10T01:44:27.512Z,20.13
2022-08-10T01:47:23.573Z,20.17
2022-08-10T01:49:56.086Z,20.16
2022-08-10T01:52:26.555Z,20.09
2022-08-10T01:54:56.597Z,19.91
2022-08-10T01:57:25.716Z,19.84
2022-08-10T01:59:58.635Z,19.88
2022-08-10T02:02:33.877Z,19.86
2022-08-10T02:05:03.469Z,19.78
2022-08-10T02:07:34.530Z,19.83
2022-08-10T02:10:09.681Z,19.72
2022-08-10T02:12:38.590Z,19.66
2022-08-10T02:15:10.685Z,19.72
2022-08-10T02:18:00.500Z,19.68
2022-08-10T02:20:39.990Z,19.54
2022-08-10T02:23:11.656Z,19.57
2022-08-10T02:25:43.390Z,19.46
2022-08-10T02:28:27.302Z,19.35
2022-08-10T02:31:23.012Z,19.30
2022-08-10T02:33:57.546Z,19.33
2022-08-10T02:36:29.539Z,19.21
2022-08-10T02:39:01.068Z,19.30
2022-08-10T02:42:18.259Z,19.31
2022-08-10T02:45:29.345Z,19.26
2022-08-10T02:47:52.589Z,19.21
2022-08-10T02:50:25.161Z,19.15
2022-08-10T02:53:00.141Z,19.11
2022-08-10T02:55:32.367Z,19.04
2022-08-10T02:58:13.292Z,19.01
2022-08-10T03:00:50.226Z,18.96
2022-08-10T03:03:23.778Z,18.90
2022-08-10T03:05:55.532Z,18.81
2022-08-10T03:08:25.901Z,18.78
2022-08-10T03:10:54.730Z,18.73
2022-08-10T03:13:23.076Z,18.71
2022-08-10T03:15:51.562Z,18.55
2022-08-10T03:18:19.995Z,18.50
2022-08-10T03:20:47.659Z,18.41
2022-08-10T03:23:17.453Z,18.29
2022-08-10T03:25:53.692Z,18.31
2022-08-10T03:28:30.184Z,18.26
2022-08-10T03:30:59.527Z,18.35
2022-08-10T03:33:28.746Z,18.31
2022-08-10T03:36:43.262Z,18.26
2022-08-10T03:38:43.659Z,18.18
2022-08-10T03:41:16.043Z,18.20
2022-08-10T03:43:47.758Z,18.19
2022-08-10T03:46:17.177Z,18.05
2022-08-10T03:48:48.645Z,18.05
2022-08-10T03:51:17.487Z,17.98
2022-08-10T03:54:03.634Z,17.97
2022-08-10T03:56:32.791Z,18.04
2022-08-10T03:59:00.535Z,17.98
2022-08-10T04:02:46.141Z,18.03
2022-08-10T04:04:19.224Z,17.98
2022-08-10T04:06:51.397Z,18.01
2022-08-10T04:09:21.154Z,17.88
2022-08-10T04:11:47.990Z,17.93
2022-08-10T04:14:37.881Z,17.91
2022-08-10T04:17:01.180Z,17.94
2022-08-10T04:19:29.930Z,17.74
2022-08-10T04:22:13.715Z,17.64
2022-08-10T04:24:42.092Z,17.59
2022-08-10T04:27:09.350Z,17.52
2022-08-10T04:29:37.179Z,17.64
2022-08-10T04:32:05.119Z,17.60
2022-08-10T04:34:33.496Z,17.47
2022-08-10T04:37:08.647Z,17.53
2022-08-10T04:39:36.018Z,17.42
2022-08-10T04:42:03.729Z,17.44
2022-08-10T04:44:30.997Z,17.30
2022-08-10T04:46:59.540Z,17.36
2022-08-10T04:49:55.373Z,17.23
2022-08-10T04:52:13.566Z,17.22
2022-08-10T04:54:43.149Z,17.10
2022-08-10T04:57:12.742Z,17.32
2022-08-10T04:59:41.094Z,17.32
2022-08-10T05:02:22.003Z,17.44
2022-08-10T05:04:54.125Z,17.31
2022-08-10T05:07:20.836Z,17.34
2022-08-10T05:10:04.179Z,17.35
2022-08-10T05:12:38.497Z,17.49
2022-08-10T05:15:11.057Z,17.53
2022-08-10T05:17:38.815Z,17.40
2022-08-10T05:20:08.505Z,17.48
2022-08-10T05:22:45.971Z,17.47
2022-08-10T05:25:15.407Z,17.45
2022-08-10T05:27:44.879Z,17.49
2022-08-10T05:30:15.203Z,17.50
2022-08-10T05:32:58.284Z,17.47
2022-08-10T05:35:28.149Z,17.59
2022-08-10T05:38:09.461Z,17.56
2022-08-10T05:40:46.488Z,17.60
2022-08-10T05:43:19.874Z,17.70
2022-08-10T05:46:18.084Z,17.71
2022-08-10T05:48:58.222Z,17.88
2022-08-10T05:51:23.767Z,18.02
2022-08-10T05:54:03.362Z,18.13
2022-08-10T05:56:53.311Z,18.31
2022-08-10T06:00:29.333Z,18.57
2022-08-10T06:02:30.807Z,18.74
2022-08-10T06:05:09.633Z,18.97
2022-08-10T06:07:59.701Z,19.12
2022-08-10T06:10:32.725Z,19.27
2022-08-10T06:13:30.238Z,19.42
2022-08-10T06:16:10.407Z,19.48
2022-08-10T06:18:38.151Z,19.58
2022-08-10T06:21:06.765Z,19.68
2022-08-10T06:23:34.818Z,19.80
2022-08-10T06:26:09.552Z,19.95
2022-08-10T06:28:44.050Z,20.12
2022-08-10T06:31:46.549Z,20.05
2022-08-10T06:34:19.672Z,19.87
2022-08-10T06:36:48.230Z,19.75
2022-08-10T06:39:32.897Z,20.00
2022-08-10T06:42:33.622Z,20.07
2022-08-10T06:45:13.547Z,20.26
2022-08-10T06:48:02.865Z,20.30
2022-08-10T06:50:55.975Z,20.40
2022-08-10T06:53:53.727Z,20.37
2022-08-10T06:56:35.821Z,20.43
2022-08-10T06:59:21.997Z,20.69
2022-08-10T07:02:03.577Z,21.08
2022-08-10T07:04:34.870Z,21.20
2022-08-10T07:07:04.532Z,21.14
2022-08-10T07:09:35.677Z,21.27
2022-08-10T07:12:07.602Z,21.31
2022-08-10T07:14:42.536Z,21.50
2022-08-10T07:17:24.375Z,21.68
2022-08-10T07:20:01.801Z,21.96
2022-08-10T07:23:51.749Z,22.28
2022-08-10T07:25:25.208Z,22.13
2022-08-10T07:28:00.151Z,22.10
2022-08-10T07:30:35.859Z,22.36
2022-08-10T07:33:04.711Z,22.73
2022-08-10T07:35:41.725Z,23.05
2022-08-10T07:38:16.035Z,23.14
2022-08-10T07:40:44.023Z,23.37
2022-08-10T07:43:12.614Z,23.31
2022-08-10T07:45:42.582Z,23.36
2022-08-10T07:48:14.739Z,23.57
2022-08-10T07:50:42.765Z,24.04
2022-08-10T07:53:13.655Z,24.41
2022-08-10T07:56:04.373Z,24.33
2022-08-10T07:58:31.870Z,24.77
2022-08-10T08:01:00.214Z,25.07
2022-08-10T08:03:29.424Z,25.00
2022-08-10T08:06:02.962Z,25.23
2022-08-10T08:08:33.750Z,24.92
2022-08-10T08:11:01.601Z,25.22
2022-08-10T08:13:29.565Z,25.93
2022-08-10T08:16:17.797Z,26.65
2022-08-10T08:18:58.426Z,26.11
2022-08-10T08:24:04.979Z,25.41
2022-08-10T08:24:32.489Z,25.96
2022-08-10T08:27:03.137Z,26.28
2022-08-10T08:29:33.853Z,26.41
2022-08-10T08:32:03.475Z,26.57
2022-08-10T08:34:36.458Z,26.51
2022-08-10T08:37:04.453Z,26.62
2022-08-10T08:39:33.215Z,26.58
2022-08-10T08:42:41.653Z,26.42
2022-08-10T08:45:29.662Z,27.38
2022-08-10T08:48:11.543Z,28.64
2022-08-10T08:50:57.842Z,29.53
2022-08-10T08:54:01.648Z,30.16
2022-08-10T08:57:07.550Z,30.86
2022-08-10T09:00:05.957Z,31.44
2022-08-10T09:02:54.878Z,31.97
2022-08-10T09:06:00.149Z,32.45
2022-08-10T09:08:32.510Z,32.98
2022-08-10T09:11:04.410Z,33.37
2022-08-10T09:13:48.923Z,33.69
2022-08-10T09:16:24.268Z,33.95
2022-08-10T09:19:05.724Z,34.26
2022-08-10T09:21:59.122Z,34.70
2022-08-10T09:24:52.120Z,35.12
2022-08-10T09:27:29.481Z,35.46
2022-08-10T09:30:08.486Z,35.62
2022-08-10T09:36:13.493Z,35.85
2022-08-10T09:36:22.447Z,36.46
2022-08-10T09:40:56.169Z,36.87
2022-08-10T09:42:23.938Z,37.24
2022-08-10T09:45:06.826Z,35.68
2022-08-10T09:48:01.003Z,35.85
2022-08-10T09:54:07.708Z,37.23
2022-08-10T09:57:44.422Z,37.92
2022-08-10T10:00:12.506Z,38.49
2022-08-10T10:03:01.987Z,38.36
2022-08-10T10:05:36.746Z,38.41
2022-08-10T10:08:14.998Z,38.04
2022-08-10T10:11:11.276Z,38.51
2022-08-10T10:14:02.475Z,38.93
2022-08-10T10:16:52.312Z,39.45
2022-08-10T10:19:55.522Z,39.83
2022-08-10T10:22:58.931Z,40.05
2022-08-10T10:26:18.743Z,40.30
2022-08-10T10:29:44.930Z,40.22
2022-08-10T10:32:43.459Z,40.63
2022-08-10T10:35:24.045Z,40.75
2022-08-10T10:38:01.861Z,40.73
2022-08-10T10:40:37.664Z,41.22
2022-08-10T10:43:26.061Z,40.56
2022-08-10T10:46:04.921Z,40.76
2022-08-10T10:48:46.887Z,41.12
2022-08-10T10:51:28.629Z,41.65
2022-08-10T10:54:21.085Z,41.98
2022-08-10T10:56:56.337Z,40.87
2022-08-10T10:59:55.481Z,41.13
2022-08-10T11:02:41.675Z,41.49
2022-08-10T11:05:31.470Z,41.80
2022-08-10T11:08:01.457Z,42.04
2022-08-10T11:10:35.823Z,42.18
2022-08-10T11:14:26.972Z,41.12
2022-08-10T11:16:28.694Z,41.07
2022-08-10T11:18:57.838Z,41.52
2022-08-10T11:21:24.504Z,41.88
2022-08-10T11:24:49.018Z,42.20
2022-08-10T11:27:02.523Z,41.83
2022-08-10T11:29:49.501Z,42.31
2022-08-10T11:32:44.107Z,42.58
2022-08-10T11:35:30.463Z,42.98
2022-08-10T11:38:31.162Z,40.83
2022-08-10T11:42:10.367Z,41.26
2022-08-10T11:44:13.391Z,41.79
2022-08-10T11:46:53.514Z,41.62
2022-08-10T11:49:34.006Z,42.06
2022-08-10T11:52:44.196Z,42.51
2022-08-10T11:55:19.351Z,42.92
2022-08-10T11:57:54.197Z,43.27
2022-08-10T12:00:24.080Z,43.36
2022-08-10T12:02:55.680Z,43.42
2022-08-10T12:05:46.451Z,43.63
2022-08-10T12:10:05.208Z,43.73
2022-08-10T12:11:18.118Z,43.94
2022-08-10T12:14:19.811Z,44.08
2022-08-10T12:16:48.868Z,44.21
2022-08-10T12:19:29.452Z,44.32
2022-08-10T12:22:31.011Z,44.52
2022-08-10T12:25:07.185Z,44.33
2022-08-10T12:27:53.298Z,44.09
2022-08-10T12:30:29.442Z,44.07
2022-08-10T12:33:09.270Z,44.20
2022-08-10T12:36:17.431Z,44.17
2022-08-10T12:38:47.604Z,44.18
2022-08-10T12:41:43.464Z,44.05
2022-08-10T12:44:22.377Z,44.33
2022-08-10T12:46:48.864Z,44.48
2022-08-10T12:49:28.559Z,44.65
2022-08-10T12:52:09.071Z,44.65
2022-08-10T12:54:37.377Z,44.74
2022-08-10T12:57:10.172Z,44.93
2022-08-10T12:59:43.311Z,44.73
2022-08-10T13:02:14.826Z,44.89
2022-08-10T13:04:44.044Z,43.76
2022-08-10T13:08:24.958Z,43.46
2022-08-10T13:10:04.104Z,43.72
2022-08-10T13:12:44.678Z,43.98
2022-08-10T13:15:45.744Z,44.40
2022-08-10T13:18:18.589Z,44.48
2022-08-10T13:20:53.545Z,44.53
2022-08-10T13:23:31.571Z,44.67
2022-08-10T13:26:01.047Z,44.81
2022-08-10T13:28:45.391Z,45.01
2022-08-10T13:31:18.298Z,45.23
2022-08-10T13:34:38.785Z,45.20
2022-08-10T13:36:42.117Z,44.37
2022-08-10T13:39:10.477Z,44.25
2022-08-10T13:41:45.684Z,44.06
2022-08-10T13:44:17.778Z,44.12
2022-08-10T13:46:53.689Z,44.10
2022-08-10T13:49:25.517Z,43.73
2022-08-10T13:51:57.899Z,43.61
2022-08-10T13:54:29.626Z,43.63
2022-08-10T13:56:57.851Z,43.75
2022-08-10T14:00:34.472Z,44.18
2022-08-10T14:02:21.854Z,44.42
2022-08-10T14:04:48.914Z,44.23
2022-08-10T14:07:17.853Z,43.56
2022-08-10T14:09:47.572Z,43.33
2022-08-10T14:12:17.653Z,43.48
2022-08-10T14:14:52.695Z,43.80
2022-08-10T14:17:22.189Z,43.94
2022-08-10T14:19:51.576Z,43.52
2022-08-10T14:22:34.323Z,43.45
2022-08-10T14:25:12.866Z,43.57
2022-08-10T14:28:03.134Z,43.72
2022-08-10T14:30:32.126Z,43.44
2022-08-10T14:33:04.187Z,43.35
2022-08-10T14:36:21.326Z,43.44
2022-08-10T14:38:26.751Z,43.62
2022-08-10T14:40:56.916Z,43.59
2022-08-10T14:43:40.276Z,43.81
2022-08-10T14:46:11.103Z,43.60
2022-08-10T14:48:48.158Z,43.39
2022-08-10T14:51:17.946Z,43.52
2022-08-10T14:53:52.370Z,43.35
2022-08-10T14:56:29.802Z,43.33
2022-08-10T14:59:06.819Z,43.26
2022-08-10T15:02:01.173Z,42.55
2022-08-10T15:04:26.694Z,42.38
2022-08-10T15:07:03.800Z,42.59
2022-08-10T15:09:59.914Z,42.20
2022-08-10T15:12:48.470Z,41.81
2022-08-10T15:15:27.990Z,41.94
2022-08-10T15:17:57.875Z,42.02
2022-08-10T15:20:27.445Z,41.80
2022-08-10T15:23:00.902Z,41.81
2022-08-10T15:25:29.092Z,41.90
2022-08-10T15:28:11.235Z,41.88
2022-08-10T15:30:42.852Z,41.81
2022-08-10T15:33:59.310Z,41.59
2022-08-10T15:36:41.731Z,41.49
2022-08-10T15:40:20.614Z,41.53
2022-08-10T15:42:20.944Z,41.45
2022-08-10T15:44:54.036Z,41.27
2022-08-10T15:47:45.182Z,41.19
2022-08-10T15:50:27.986Z,41.00
2022-08-10T15:53:01.915Z,40.85
2022-08-10T15:55:51.592Z,40.35
2022-08-10T15:58:23.790Z,40.23
2022-08-10T16:02:12.488Z,40.21
2022-08-10T16:04:43.617Z,40.35
2022-08-10T16:07:48.939Z,40.11
2022-08-10T16:10:26.097Z,40.06
2022-08-10T16:13:01.318Z,39.96
2022-08-10T16:15:30.270Z,39.77
2022-08-10T16:18:09.006Z,39.57
2022-08-10T16:20:55.531Z,39.35
2022-08-10T16:23:31.722Z,39.17
2022-08-10T16:26:13.604Z,38.75
2022-08-10T16:28:49.947Z,38.56
2022-08-10T16:31:22.550Z,38.35
2022-08-10T16:33:55.377Z,38.17
2022-08-10T16:36:28.939Z,37.98
2022-08-10T16:38:57.569Z,37.75
2022-08-10T16:42:03.869Z,37.58
2022-08-10T16:44:15.893Z,37.41
2022-08-10T16:46:45.201Z,37.49
2022-08-10T16:49:15.095Z,37.36
2022-08-10T16:51:47.124Z,37.18
2022-08-10T16:54:22.347Z,37.07
2022-08-10T16:56:52.850Z,36.88
2022-08-10T16:59:24.779Z,36.94
2022-08-10T17:01:54.150Z,36.84
2022-08-10T17:04:23.625Z,36.82
2022-08-10T17:06:59.733Z,36.67
2022-08-10T17:09:33.150Z,36.53
2022-08-10T17:12:05.487Z,36.51
2022-08-10T17:14:32.190Z,36.36
2022-08-10T17:17:05.779Z,36.28
2022-08-10T17:19:37.782Z,36.21
2022-08-10T17:22:11.753Z,36.04
2022-08-10T17:24:45.833Z,35.91
2022-08-10T17:28:03.000Z,35.68
2022-08-10T17:30:07.029Z,35.48
2022-08-10T17:32:45.653Z,35.14
2022-08-10T17:35:23.331Z,35.04
2022-08-10T17:38:10.015Z,34.94
2022-08-10T17:40:57.817Z,34.86
2022-08-10T17:44:01.107Z,34.79
2022-08-10T17:46:14.325Z,34.69
2022-08-10T17:48:42.864Z,34.55
2022-08-10T17:51:15.450Z,34.43
2022-08-10T17:53:52.001Z,34.24
2022-08-10T17:56:22.621Z,34.08
2022-08-10T17:58:53.720Z,33.85
2022-08-10T18:01:38.910Z,33.56
2022-08-10T18:04:17.213Z,33.41
2022-08-10T18:06:44.415Z,33.11
2022-08-10T18:09:24.115Z,32.90
2022-08-10T18:11:57.834Z,32.80
2022-08-10T18:14:29.935Z,32.57
2022-08-10T18:16:58.913Z,32.33
2022-08-10T18:19:29.888Z,32.19
2022-08-10T18:21:58.179Z,31.95
2022-08-10T18:24:27.143Z,31.85
2022-08-10T18:26:56.314Z,31.74
2022-08-10T18:29:27.534Z,31.55
2022-08-10T18:32:02.616Z,31.39
2022-08-10T18:34:31.648Z,31.29
2022-08-10T18:37:00.183Z,31.17
2022-08-10T18:39:36.315Z,31.05
2022-08-10T18:43:01.282Z,30.83
2022-08-10T18:45:32.307Z,30.76
2022-08-10T18:48:05.032Z,30.61
2022-08-10T18:50:37.653Z,30.58
2022-08-10T18:53:18.459Z,30.36
2022-08-10T18:56:09.315Z,30.34
2022-08-10T18:59:04.949Z,30.19
2022-08-10T19:02:01.565Z,29.95
2022-08-10T19:04:36.050Z,29.82
2022-08-10T19:07:02.523Z,29.67
2022-08-10T19:09:48.467Z,29.47
2022-08-10T19:12:33.775Z,29.27
2022-08-10T19:15:25.195Z,29.11
2022-08-10T19:18:20.009Z,28.93
2022-08-10T19:20:49.928Z,28.81
2022-08-10T19:23:22.274Z,28.68
2022-08-10T19:26:42.501Z,28.55
2022-08-10T19:29:05.081Z,28.41
2022-08-10T19:31:44.258Z,28.30
2022-08-10T19:34:21.771Z,28.18
2022-08-10T19:37:32.527Z,28.08
2022-08-10T19:40:44.196Z,27.91
2022-08-10T19:43:59.110Z,27.78
2022-08-10T19:46:35.664Z,27.67
2022-08-10T19:49:24.197Z,27.55
2022-08-10T19:52:11.534Z,27.39
2022-08-10T19:55:03.849Z,27.38
2022-08-10T19:57:38.407Z,27.31
2022-08-10T20:00:19.593Z,27.27
2022-08-10T20:02:59.683Z,27.13
2022-08-10T20:05:32.681Z,27.12
2022-08-10T20:08:17.823Z,27.08
2022-08-10T20:11:10.309Z,26.97
2022-08-10T20:14:09.334Z,26.95
2022-08-10T20:16:48.446Z,26.88
2022-08-10T20:19:53.229Z,26.78
2022-08-10T20:22:29.773Z,26.69
2022-08-10T20:25:22.788Z,26.55
2022-08-10T20:28:09.144Z,26.59
2022-08-10T20:30:39.782Z,26.57
2022-08-10T20:33:12.367Z,26.55
2022-08-10T20:36:07.855Z,26.52
2022-08-10T20:38:48.246Z,26.44
2022-08-10T20:41:31.678Z,26.14
2022-08-10T20:44:22.415Z,25.92
2022-08-10T20:47:00.343Z,25.76
2022-08-10T20:49:31.137Z,25.64
2022-08-10T20:52:02.161Z,25.41
2022-08-10T20:54:35.334Z,25.43
2022-08-10T20:57:56.206Z,25.33
2022-08-10T21:00:30.013Z,25.25
2022-08-10T21:03:27.296Z,25.23
2022-08-10T21:06:13.672Z,25.17
2022-08-10T21:09:02.150Z,25.07
2022-08-10T21:11:49.505Z,24.96
2022-08-10T21:14:32.439Z,24.81
2022-08-10T21:17:03.121Z,24.80
2022-08-10T21:22:44.972Z,24.43
2022-08-10T21:25:15.457Z,24.43
2022-08-10T21:25:41.910Z,24.68
2022-08-10T21:28:03.492Z,24.36
2022-08-10T21:30:55.245Z,24.33
2022-08-10T21:33:45.283Z,24.25
2022-08-10T21:36:27.270Z,24.18
2022-08-10T21:39:19.927Z,24.17
2022-08-10T21:42:16.957Z,24.12
2022-08-10T21:45:24.686Z,24.00
2022-08-10T21:48:57.622Z,23.95
2022-08-10T21:52:04.159Z,23.88
2022-08-10T21:55:09.977Z,23.90
2022-08-10T21:58:28.461Z,23.80
2022-08-10T22:01:39.167Z,23.64
2022-08-10T22:04:25.418Z,23.64
2022-08-10T22:07:11.165Z,23.56
2022-08-10T22:13:11.370Z,23.52
2022-08-10T22:16:10.470Z,23.48
2022-08-10T22:19:02.634Z,23.30
2022-08-10T22:22:27.815Z,23.21
2022-08-10T22:26:02.149Z,23.13
2022-08-10T22:28:48.565Z,23.03
2022-08-10T22:31:25.830Z,23.50
2022-08-10T22:32:15.412Z,23.00
2022-08-10T22:35:23.127Z,22.86
2022-08-10T22:38:34.184Z,22.68
2022-08-10T22:41:32.069Z,22.67
2022-08-10T22:44:19.477Z,22.67
2022-08-10T22:47:06.959Z,22.55
2022-08-10T22:49:34.440Z,22.56
2022-08-10T22:52:09.762Z,22.57
2022-08-10T22:55:06.904Z,22.55
2022-08-10T22:57:52.334Z,22.49
2022-08-10T23:00:31.395Z,22.47
2022-08-10T23:03:21.585Z,22.52
2022-08-10T23:05:57.677Z,22.52
2022-08-10T23:08:31.195Z,22.51
2022-08-10T23:11:04.561Z,22.49
2022-08-10T23:13:36.467Z,22.49
2022-08-10T23:16:33.375Z,22.46
2022-08-10T23:19:09.904Z,22.37
2022-08-10T23:22:03.876Z,22.14
2022-08-10T23:24:41.713Z,22.25
2022-08-10T23:27:37.373Z,22.14
2022-08-10T23:30:09.497Z,22.07
2022-08-10T23:32:42.352Z,21.92
2022-08-10T23:36:08.872Z,21.94
2022-08-10T23:38:04.826Z,21.81
2022-08-10T23:40:33.392Z,21.82
2022-08-10T23:43:02.184Z,21.70
2022-08-10T23:45:52.483Z,21.65
2022-08-10T23:48:23.400Z,21.63
2022-08-10T23:50:59.669Z,21.42
2022-08-10T23:53:30.230Z,21.47
2022-08-10T23:56:20.831Z,21.40
2022-08-10T23:58:50.249Z,21.33
